createdAt,value
2018-05-19T00:00:59.567Z,65.01
2018-05-19T00:01:59.533Z,64.53
2018-05-19T00:02:59.554Z,65.11
2018-05-19T00:03:59.574Z,65.2
2018-05-19T00:04:59.608Z,64.92
2018-05-19T00:05:59.625Z,65.17
2018-05-19T00:06:59.651Z,65.3
2018-05-19T00:07:59.421Z,64.79
2018-05-19T00:08:59.696Z,65.49
2018-05-19T00:09:59.722Z,65.36
2018-05-19T00:10:59.737Z,65.49
2018-05-19T00:11:59.760Z,65.17
2018-05-19T00:12:59.785Z,65.55
2018-05-19T00:13:59.810Z,65.65
2018-05-19T00:14:59.833Z,65.75
2018-05-19T00:15:59.909Z,65.65
2018-05-19T00:16:59.876Z,65.65
2018-05-19T00:17:59.901Z,65.36
2018-05-19T00:18:59.662Z,65.84
2018-05-19T00:19:59.939Z,65.55
2018-05-19T00:20:59.718Z,65.84
2018-05-19T00:21:59.983Z,65.65
2018-05-19T00:23:00.026Z,66.13
2018-05-19T00:24:00.027Z,65.46
2018-05-19T00:25:00.050Z,65.75
2018-05-19T00:26:00.080Z,65.46
2018-05-19T00:27:00.093Z,65.46
2018-05-19T00:28:00.145Z,66.13
2018-05-19T00:29:00.140Z,66.03
2018-05-19T00:29:59.916Z,65.75
2018-05-19T00:31:00.379Z,66.22
2018-05-19T00:32:00.204Z,65.65
2018-05-19T00:33:00.243Z,65.75
2018-05-19T00:34:00.247Z,65.75
2018-05-19T00:35:00.269Z,66.42
2018-05-19T00:36:00.293Z,66.42
2018-05-19T00:37:00.313Z,66.51
2018-05-19T00:38:00.333Z,66.48
2018-05-19T00:39:00.359Z,66.96
2018-05-19T00:40:00.382Z,66.96
2018-05-19T00:41:00.402Z,66.67
2018-05-19T00:42:00.428Z,67.05
2018-05-19T00:43:00.446Z,67.25
2018-05-19T00:44:00.465Z,66.96
2018-05-19T00:45:00.488Z,66.77
2018-05-19T00:46:00.559Z,66.96
2018-05-19T00:47:00.533Z,67.25
2018-05-19T00:48:00.308Z,67.05
2018-05-19T00:49:00.576Z,67.05
2018-05-19T00:50:00.344Z,66.77
2018-05-19T00:51:00.416Z,66.96
2018-05-19T00:52:00.641Z,67.05
2018-05-19T00:53:00.661Z,66.67
2018-05-19T00:54:00.432Z,67.34
2018-05-19T00:55:00.705Z,66.86
2018-05-19T00:56:00.731Z,66.67
2018-05-19T00:57:00.750Z,67.25
2018-05-19T00:58:00.772Z,67.34
2018-05-19T00:59:00.794Z,66.96
2018-05-19T01:00:00.816Z,66.96
2018-05-19T01:01:00.891Z,66.86
2018-05-19T01:02:00.605Z,67.15
2018-05-19T01:03:00.889Z,66.67
2018-05-19T01:04:00.902Z,66.86
2018-05-19T01:05:00.922Z,67.34
2018-05-19T01:06:00.699Z,67.34
2018-05-19T01:07:00.972Z,67.25
2018-05-19T01:08:00.992Z,67.54
2018-05-19T01:09:01.028Z,67.25
2018-05-19T01:10:01.030Z,67.34
2018-05-19T01:11:00.804Z,67.34
2018-05-19T01:12:01.073Z,67.34
2018-05-19T01:13:01.099Z,67.54
2018-05-19T01:14:01.120Z,67.25
2018-05-19T01:15:00.886Z,67.34
2018-05-19T01:16:01.215Z,67.54
2018-05-19T01:17:01.186Z,67.82
2018-05-19T01:18:00.947Z,67.72
2018-05-19T01:19:00.973Z,67.63
2018-05-19T01:20:01.242Z,67.82
2018-05-19T01:21:01.012Z,67.82
2018-05-19T01:22:01.287Z,67.82
2018-05-19T01:23:01.307Z,67.91
2018-05-19T01:24:01.434Z,67.69
2018-05-19T01:25:01.355Z,68.21
2018-05-19T01:26:01.383Z,68.4
2018-05-19T01:27:01.396Z,68.49
2018-05-19T01:28:01.421Z,68.21
2018-05-19T01:29:01.440Z,68.17
2018-05-19T01:30:01.223Z,68.17
2018-05-19T01:31:01.532Z,68.36
2018-05-19T01:32:01.251Z,68.27
2018-05-19T01:33:01.525Z,68.55
2018-05-19T01:34:01.295Z,68.55
2018-05-19T01:35:01.571Z,68.36
2018-05-19T01:36:01.708Z,68.65
2018-05-19T01:37:01.618Z,68.55
2018-05-19T01:38:01.383Z,68.84
2018-05-19T01:39:01.656Z,68.55
2018-05-19T01:40:01.678Z,68.84
2018-05-19T01:41:01.705Z,68.84
2018-05-19T01:42:01.468Z,68.55
2018-05-19T01:43:01.493Z,69.23
2018-05-19T01:44:01.763Z,68.36
2018-05-19T01:45:01.533Z,69.51
2018-05-19T01:46:01.858Z,69.13
2018-05-19T01:47:01.843Z,69.13
2018-05-19T01:48:01.854Z,68.55
2018-05-19T01:49:01.619Z,68.55
2018-05-19T01:50:01.896Z,68.65
2018-05-19T01:51:01.914Z,68.94
2018-05-19T01:52:01.938Z,68.55
2018-05-19T01:53:01.959Z,68.74
2018-05-19T01:54:01.727Z,68.94
2018-05-19T01:55:02.002Z,69.03
2018-05-19T01:56:02.072Z,68.84
2018-05-19T01:57:01.793Z,69.19
2018-05-19T01:58:02.076Z,69.38
2018-05-19T01:59:02.084Z,68.62
2018-05-19T02:00:02.111Z,69
2018-05-19T02:01:02.189Z,68.9
2018-05-19T02:02:02.148Z,69.19
2018-05-19T02:03:02.171Z,69.19
2018-05-19T02:04:02.192Z,69.19
2018-05-19T02:05:02.213Z,69.19
2018-05-19T02:06:02.246Z,69.19
2018-05-19T02:07:02.259Z,69.76
2018-05-19T02:08:02.275Z,69.29
2018-05-19T02:09:02.298Z,69.67
2018-05-19T02:10:02.337Z,69.57
2018-05-19T02:11:02.478Z,70.15
2018-05-19T02:12:02.358Z,70.15
2018-05-19T02:13:02.430Z,69.67
2018-05-19T02:14:02.404Z,70.05
2018-05-19T02:15:02.435Z,69.86
2018-05-19T02:16:02.494Z,70.24
2018-05-19T02:17:02.468Z,69.67
2018-05-19T02:18:02.486Z,69.57
2018-05-19T02:19:02.506Z,69.57
2018-05-19T02:20:02.286Z,69.76
2018-05-19T02:21:02.301Z,69.67
2018-05-19T02:22:02.576Z,69.86
2018-05-19T02:23:02.590Z,69.86
2018-05-19T02:24:02.630Z,69.57
2018-05-19T02:25:02.386Z,69.95
2018-05-19T02:26:02.662Z,69.76
2018-05-19T02:27:02.688Z,69.76
2018-05-19T02:28:02.706Z,69.29
2018-05-19T02:29:02.724Z,69.48
2018-05-19T02:30:02.746Z,69.09
2018-05-19T02:31:02.808Z,69.67
2018-05-19T02:32:02.783Z,69.76
2018-05-19T02:33:02.821Z,69.57
2018-05-19T02:34:02.823Z,69.57
2018-05-19T02:35:02.868Z,69.57
2018-05-19T02:36:02.933Z,69.95
2018-05-19T02:37:02.892Z,70.05
2018-05-19T02:38:02.912Z,69.57
2018-05-19T02:39:02.683Z,70.05
2018-05-19T02:40:02.955Z,69.67
2018-05-19T02:41:02.973Z,70.05
2018-05-19T02:42:03.003Z,70.34
2018-05-19T02:43:03.015Z,69.67
2018-05-19T02:44:02.781Z,69.67
2018-05-19T02:45:03.057Z,70.15
2018-05-19T02:46:03.076Z,69.86
2018-05-19T02:47:03.107Z,70.21
2018-05-19T02:48:03.122Z,70.11
2018-05-19T02:49:03.139Z,70.11
2018-05-19T02:50:03.168Z,70.3
2018-05-19T02:51:03.236Z,70.11
2018-05-19T02:52:02.946Z,70.59
2018-05-19T02:53:03.225Z,71.07
2018-05-19T02:54:03.243Z,71.07
2018-05-19T02:55:03.292Z,70.87
2018-05-19T02:56:03.285Z,70.97
2018-05-19T02:57:03.317Z,70.97
2018-05-19T02:58:03.330Z,70.59
2018-05-19T02:59:03.346Z,70.59
2018-05-19T03:00:03.429Z,70.68
2018-05-19T03:01:03.392Z,70.87
2018-05-19T03:02:03.413Z,70.11
2018-05-19T03:03:03.472Z,71.07
2018-05-19T03:04:03.197Z,70.97
2018-05-19T03:05:03.477Z,70.68
2018-05-19T03:06:03.647Z,70.59
2018-05-19T03:07:03.259Z,70.68
2018-05-19T03:08:03.288Z,70.68
2018-05-19T03:09:03.555Z,70.78
2018-05-19T03:10:03.326Z,70.78
2018-05-19T03:11:03.697Z,70.78
2018-05-19T03:12:03.628Z,70.87
2018-05-19T03:13:03.641Z,70.87
2018-05-19T03:14:03.661Z,70.87
2018-05-19T03:15:03.694Z,71.26
2018-05-19T03:16:03.473Z,70.87
2018-05-19T03:17:03.748Z,70.87
2018-05-19T03:18:03.747Z,71.26
2018-05-19T03:19:03.514Z,70.87
2018-05-19T03:20:03.781Z,71.36
2018-05-19T03:21:03.854Z,70.97
2018-05-19T03:22:03.828Z,71.45
2018-05-19T03:23:03.843Z,70.97
2018-05-19T03:24:03.617Z,71.07
2018-05-19T03:25:03.895Z,71.07
2018-05-19T03:26:03.916Z,71.07
2018-05-19T03:27:03.932Z,70.87
2018-05-19T03:28:03.979Z,71.07
2018-05-19T03:29:03.973Z,71.45
2018-05-19T03:30:03.757Z,70.78
2018-05-19T03:31:03.765Z,70.97
2018-05-19T03:32:04.034Z,70.97
2018-05-19T03:33:04.060Z,71.36
2018-05-19T03:34:04.084Z,71.26
2018-05-19T03:35:04.102Z,71.36
2018-05-19T03:36:04.320Z,71.36
2018-05-19T03:37:03.886Z,71.26
2018-05-19T03:38:04.163Z,71.55
2018-05-19T03:39:03.925Z,71.73
2018-05-19T03:40:04.209Z,71.45
2018-05-19T03:41:04.224Z,71.26
2018-05-19T03:42:04.251Z,71.55
2018-05-19T03:43:04.008Z,71.83
2018-05-19T03:44:04.029Z,71.36
2018-05-19T03:45:04.049Z,71.83
2018-05-19T03:46:04.324Z,71.93
2018-05-19T03:47:04.092Z,71.26
2018-05-19T03:48:04.116Z,71.73
2018-05-19T03:49:04.132Z,71.64
2018-05-19T03:50:04.411Z,71.64
2018-05-19T03:51:04.223Z,71.83
2018-05-19T03:52:04.195Z,71.45
2018-05-19T03:53:04.474Z,71.83
2018-05-19T03:54:04.687Z,71.93
2018-05-19T03:55:04.259Z,71.64
2018-05-19T03:56:04.536Z,71.55
2018-05-19T03:57:04.302Z,71.36
2018-05-19T03:58:04.323Z,71.64
2018-05-19T03:59:04.344Z,71.55
2018-05-19T04:00:04.619Z,71.26
2018-05-19T04:01:04.386Z,71.55
2018-05-19T04:02:04.671Z,71.16
2018-05-19T04:03:04.427Z,70.87
2018-05-19T04:04:04.446Z,71.45
2018-05-19T04:05:04.464Z,71.07
2018-05-19T04:06:04.794Z,71.07
2018-05-19T04:07:04.766Z,71.07
2018-05-19T04:08:04.785Z,71.45
2018-05-19T04:09:04.851Z,71.64
2018-05-19T04:10:04.588Z,71.55
2018-05-19T04:11:04.847Z,71.36
2018-05-19T04:12:04.612Z,71.36
2018-05-19T04:13:04.891Z,71.36
2018-05-19T04:14:04.740Z,71.64
2018-05-19T04:15:04.687Z,71.45
2018-05-19T04:16:05.000Z,71.64
2018-05-19T04:17:04.717Z,71.73
2018-05-19T04:18:04.742Z,71.55
2018-05-19T04:19:05.015Z,71.73
2018-05-19T04:20:05.034Z,71.64
2018-05-19T04:21:05.053Z,71.73
2018-05-19T04:22:05.074Z,71.55
2018-05-19T04:23:05.129Z,71.73
2018-05-19T04:24:04.863Z,71.83
2018-05-19T04:25:05.140Z,71.83
2018-05-19T04:26:05.159Z,71.64
2018-05-19T04:27:04.922Z,71.73
2018-05-19T04:28:05.198Z,71.93
2018-05-19T04:29:05.214Z,71.83
2018-05-19T04:30:04.981Z,71.55
2018-05-19T04:31:05.304Z,71.45
2018-05-19T04:32:05.293Z,71.64
2018-05-19T04:33:05.297Z,71.45
2018-05-19T04:34:05.065Z,71.16
2018-05-19T04:35:05.341Z,71.11
2018-05-19T04:36:05.358Z,70.81
2018-05-19T04:37:05.131Z,70.91
2018-05-19T04:38:05.412Z,71.01
2018-05-19T04:39:05.419Z,71.01
2018-05-19T04:40:05.449Z,71.2
2018-05-19T04:41:05.209Z,70.53
2018-05-19T04:42:05.482Z,70.81
2018-05-19T04:43:05.508Z,70.78
2018-05-19T04:44:05.282Z,71.36
2018-05-19T04:45:05.548Z,70.81
2018-05-19T04:46:05.365Z,71.01
2018-05-19T04:47:05.591Z,71.3
2018-05-19T04:48:05.375Z,70.91
2018-05-19T04:49:05.637Z,70.72
2018-05-19T04:50:05.651Z,71.01
2018-05-19T04:51:05.419Z,70.91
2018-05-19T04:52:05.439Z,70.91
2018-05-19T04:53:05.510Z,70.81
2018-05-19T04:54:05.745Z,71.2
2018-05-19T04:55:05.755Z,71.01
2018-05-19T04:56:05.594Z,70.34
2018-05-19T04:57:05.553Z,70.62
2018-05-19T04:58:05.826Z,70.24
2018-05-19T04:59:05.845Z,70.15
2018-05-19T05:00:05.609Z,70.24
2018-05-19T05:01:05.951Z,70.34
2018-05-19T05:02:05.911Z,70.34
2018-05-19T05:03:05.927Z,70.15
2018-05-19T05:04:06.166Z,70.05
2018-05-19T05:05:05.971Z,70.15
2018-05-19T05:06:05.987Z,70.34
2018-05-19T05:07:06.014Z,70.43
2018-05-19T05:08:06.033Z,70.34
2018-05-19T05:09:05.802Z,70.53
2018-05-19T05:10:05.831Z,70.62
2018-05-19T05:11:06.093Z,70.15
2018-05-19T05:12:06.112Z,70.15
2018-05-19T05:13:06.133Z,70.15
2018-05-19T05:14:05.904Z,70.05
2018-05-19T05:15:06.195Z,70.15
2018-05-19T05:16:06.250Z,70.24
2018-05-19T05:17:06.218Z,69.95
2018-05-19T05:18:05.986Z,70.34
2018-05-19T05:19:06.260Z,69.09
2018-05-19T05:20:06.281Z,69.67
2018-05-19T05:21:06.309Z,69.67
2018-05-19T05:22:06.323Z,69.95
2018-05-19T05:23:06.345Z,70.05
2018-05-19T05:24:06.108Z,70.05
2018-05-19T05:25:06.392Z,70.15
2018-05-19T05:26:06.408Z,70.05
2018-05-19T05:27:06.504Z,69.86
2018-05-19T05:28:06.469Z,69.57
2018-05-19T05:29:06.477Z,69.76
2018-05-19T05:30:06.491Z,69.32
2018-05-19T05:31:06.309Z,69.23
2018-05-19T05:32:06.279Z,69.13
2018-05-19T05:33:06.555Z,69.42
2018-05-19T05:34:06.575Z,68.74
2018-05-19T05:35:06.343Z,69.42
2018-05-19T05:36:06.363Z,69.42
2018-05-19T05:37:06.654Z,69.13
2018-05-19T05:38:06.667Z,69.03
2018-05-19T05:39:06.682Z,69.6
2018-05-19T05:40:06.451Z,69.23
2018-05-19T05:41:06.725Z,69.32
2018-05-19T05:42:06.799Z,69.51
2018-05-19T05:43:06.911Z,69.23
2018-05-19T05:44:06.793Z,69.57
2018-05-19T05:45:06.810Z,69.67
2018-05-19T05:46:06.879Z,69.76
2018-05-19T05:47:06.864Z,69.32
2018-05-19T05:48:06.874Z,69.32
2018-05-19T05:49:06.669Z,69.13
2018-05-19T05:50:07.058Z,69.23
2018-05-19T05:51:06.939Z,69.42
2018-05-19T05:52:06.961Z,69.32
2018-05-19T05:53:06.985Z,69.32
2018-05-19T05:54:07.014Z,69.03
2018-05-19T05:55:07.020Z,69.23
2018-05-19T05:56:07.045Z,69.89
2018-05-19T05:57:07.072Z,69.8
2018-05-19T05:58:07.092Z,69.32
2018-05-19T05:59:07.107Z,69.42
2018-05-19T06:00:07.129Z,69.42
2018-05-19T06:01:08.152Z,69.51
2018-05-19T06:02:06.919Z,69.51
2018-05-19T06:03:07.203Z,69.03
2018-05-19T06:04:06.964Z,69.35
2018-05-19T06:05:07.238Z,69.32
2018-05-19T06:06:07.359Z,69.26
2018-05-19T06:07:07.025Z,69.51
2018-05-19T06:08:07.299Z,69.51
2018-05-19T06:09:07.065Z,69.23
2018-05-19T06:10:07.346Z,69.32
2018-05-19T06:11:07.426Z,69.42
2018-05-19T06:12:07.137Z,69.13
2018-05-19T06:13:07.429Z,69.8
2018-05-19T06:14:07.432Z,69.51
2018-05-19T06:15:07.461Z,69.32
2018-05-19T06:16:07.529Z,69.8
2018-05-19T06:17:07.502Z,69.42
2018-05-19T06:18:07.520Z,69.32
2018-05-19T06:19:07.283Z,69.17
2018-05-19T06:20:07.563Z,69.26
2018-05-19T06:21:07.595Z,69.26
2018-05-19T06:22:07.604Z,69.07
2018-05-19T06:23:07.628Z,68.4
2018-05-19T06:24:07.645Z,68.59
2018-05-19T06:25:07.875Z,68.4
2018-05-19T06:26:07.691Z,68.59
2018-05-19T06:27:07.710Z,67.82
2018-05-19T06:28:07.730Z,67.63
2018-05-19T06:29:07.757Z,68.59
2018-05-19T06:30:07.773Z,67.82
2018-05-19T06:31:07.845Z,67.72
2018-05-19T06:32:07.564Z,67.91
2018-05-19T06:33:07.837Z,67.82
2018-05-19T06:34:07.871Z,67.91
2018-05-19T06:35:07.879Z,67.18
2018-05-19T06:36:08.002Z,67.76
2018-05-19T06:37:07.676Z,67.09
2018-05-19T06:38:07.699Z,67.47
2018-05-19T06:39:07.974Z,67.09
2018-05-19T06:40:07.998Z,67.09
2018-05-19T06:41:08.020Z,67.38
2018-05-19T06:42:08.166Z,67.09
2018-05-19T06:43:07.806Z,66.55
2018-05-19T06:44:08.081Z,66.55
2018-05-19T06:45:08.128Z,66.26
2018-05-19T06:46:08.186Z,66.35
2018-05-19T06:47:08.184Z,66.16
2018-05-19T06:48:08.410Z,66.16
2018-05-19T06:49:08.194Z,66.55
2018-05-19T06:50:08.222Z,65.68
2018-05-19T06:51:07.986Z,66.55
2018-05-19T06:52:08.007Z,66
2018-05-19T06:53:08.279Z,66.1
2018-05-19T06:54:08.047Z,65.62
2018-05-19T06:55:08.323Z,65.23
2018-05-19T06:56:08.347Z,65.52
2018-05-19T06:57:08.435Z,65.91
2018-05-19T06:58:08.139Z,66.19
2018-05-19T06:59:08.161Z,65.23
2018-05-19T07:00:08.438Z,65.27
2018-05-19T07:01:08.457Z,64.85
2018-05-19T07:02:08.480Z,65.52
2018-05-19T07:03:08.251Z,64.59
2018-05-19T07:04:08.535Z,64.89
2018-05-19T07:05:08.553Z,64.5
2018-05-19T07:06:08.584Z,64.69
2018-05-19T07:07:08.604Z,64.59
2018-05-19T07:08:08.639Z,64.31
2018-05-19T07:09:08.652Z,64.12
2018-05-19T07:10:08.674Z,64.02
2018-05-19T07:11:08.692Z,63.73
2018-05-19T07:12:08.720Z,63.64
2018-05-19T07:13:08.736Z,62.99
2018-05-19T07:14:08.507Z,62.32
2018-05-19T07:15:08.618Z,62.71
2018-05-19T07:16:08.816Z,63.48
2018-05-19T07:17:08.831Z,63.09
2018-05-19T07:18:08.860Z,62.71
2018-05-19T07:19:08.627Z,62.81
2018-05-19T07:20:08.899Z,63.09
2018-05-19T07:21:08.677Z,63.19
2018-05-19T07:22:08.692Z,63.19
2018-05-19T07:23:08.981Z,63.19
2018-05-19T07:24:08.991Z,63.38
2018-05-19T07:25:09.022Z,63.57
2018-05-19T07:26:09.039Z,62.9
2018-05-19T07:27:09.061Z,63.28
2018-05-19T07:28:08.847Z,62.64
2018-05-19T07:29:08.860Z,62.55
2018-05-19T07:30:09.139Z,62.64
2018-05-19T07:31:09.167Z,62.71
2018-05-19T07:32:09.178Z,62.55
2018-05-19T07:33:09.199Z,62.84
2018-05-19T07:34:09.230Z,62.55
2018-05-19T07:35:09.254Z,62.45
2018-05-19T07:36:09.511Z,62.35
2018-05-19T07:37:09.299Z,61.78
2018-05-19T07:38:09.323Z,61.4
2018-05-19T07:39:09.342Z,62.26
2018-05-19T07:40:09.370Z,61.68
2018-05-19T07:41:09.391Z,62.16
2018-05-19T07:42:09.440Z,62.07
2018-05-19T07:43:09.440Z,62.74
2018-05-19T07:44:09.460Z,62.84
2018-05-19T07:45:09.488Z,61.71
2018-05-19T07:46:09.512Z,61.52
2018-05-19T07:47:09.291Z,62.1
2018-05-19T07:48:09.559Z,61.91
2018-05-19T07:49:09.585Z,62.84
2018-05-19T07:50:09.606Z,63.6
2018-05-19T07:51:09.632Z,63.02
2018-05-19T07:52:09.655Z,62.93
2018-05-19T07:53:09.686Z,62.74
2018-05-19T07:54:09.708Z,62.45
2018-05-19T07:55:09.471Z,62.35
2018-05-19T07:56:09.749Z,62.45
2018-05-19T07:57:09.779Z,61.97
2018-05-19T07:58:09.882Z,62
2018-05-19T07:59:09.830Z,61.33
2018-05-19T08:00:09.835Z,61.04
2018-05-19T08:01:09.874Z,61.52
2018-05-19T08:02:09.881Z,61.04
2018-05-19T08:03:09.923Z,60.78
2018-05-19T08:04:10.025Z,60.56
2018-05-19T08:05:09.965Z,60.39
2018-05-19T08:06:09.996Z,59.44
2018-05-19T08:07:10.012Z,59.53
2018-05-19T08:08:10.041Z,58.98
2018-05-19T08:09:10.061Z,59.08
2018-05-19T08:10:10.092Z,60.3
2018-05-19T08:11:10.113Z,60.69
2018-05-19T08:12:10.134Z,60.59
2018-05-19T08:13:10.163Z,60.39
2018-05-19T08:14:10.179Z,58.89
2018-05-19T08:15:10.212Z,58.89
2018-05-19T08:16:09.978Z,59.56
2018-05-19T08:17:10.257Z,57.83
2018-05-19T08:18:10.027Z,58.22
2018-05-19T08:19:10.303Z,57.54
2018-05-19T08:20:10.332Z,57.06
2018-05-19T08:21:10.357Z,56.77
2018-05-19T08:22:10.124Z,56.99
2018-05-19T08:23:10.408Z,57.09
2018-05-19T08:24:10.428Z,56.8
2018-05-19T08:25:10.453Z,56.6
2018-05-19T08:26:10.473Z,55.67
2018-05-19T08:27:10.548Z,55.77
2018-05-19T08:28:10.269Z,54.52
2018-05-19T08:29:10.549Z,55.29
2018-05-19T08:30:10.571Z,55.48
2018-05-19T08:31:10.473Z,55.19
2018-05-19T08:32:10.420Z,55.87
2018-05-19T08:33:10.393Z,55
2018-05-19T08:34:10.682Z,55.65
2018-05-19T08:35:10.785Z,55.35
2018-05-19T08:36:10.731Z,55.93
2018-05-19T08:37:10.749Z,54.87
2018-05-19T08:38:10.522Z,54.52
2018-05-19T08:39:10.557Z,53.84
2018-05-19T08:40:10.571Z,53.87
2018-05-19T08:41:10.983Z,53.67
2018-05-19T08:42:10.723Z,53.29
2018-05-19T08:43:10.648Z,52.71
2018-05-19T08:44:10.674Z,53
2018-05-19T08:45:10.954Z,53.19
2018-05-19T08:46:10.982Z,51.94
2018-05-19T08:47:11.066Z,51.84
2018-05-19T08:48:11.041Z,51.07
2018-05-19T08:49:10.795Z,50.69
2018-05-19T08:50:11.082Z,50.23
2018-05-19T08:51:11.101Z,51.2
2018-05-19T08:52:11.130Z,51.97
2018-05-19T08:53:11.151Z,51.75
2018-05-19T08:54:11.196Z,51.39
2018-05-19T08:55:10.952Z,51
2018-05-19T08:56:11.248Z,51.2
2018-05-19T08:57:11.260Z,50.71
2018-05-19T08:58:11.424Z,50.23
2018-05-19T08:59:11.314Z,50.13
2018-05-19T09:00:11.332Z,51.58
2018-05-19T09:01:11.358Z,51.48
2018-05-19T09:02:11.435Z,50.71
2018-05-19T09:03:11.155Z,50.06
2018-05-19T09:04:11.441Z,49.1
2018-05-19T09:05:11.460Z,49.1
2018-05-19T09:06:11.239Z,48.25
2018-05-19T09:07:11.521Z,48.61
2018-05-19T09:08:11.287Z,48.44
2018-05-19T09:09:11.569Z,47.87
2018-05-19T09:10:11.597Z,47.67
2018-05-19T09:11:11.618Z,47.58
2018-05-19T09:12:11.643Z,47.48
2018-05-19T09:13:11.674Z,47.38
2018-05-19T09:14:11.444Z,46.42
2018-05-19T09:15:11.723Z,46.23
2018-05-19T09:16:11.747Z,46.25
2018-05-19T09:17:11.827Z,46.44
2018-05-19T09:18:11.810Z,46.06
2018-05-19T09:19:11.830Z,46.54
2018-05-19T09:20:11.610Z,45.86
2018-05-19T09:21:11.906Z,46.06
2018-05-19T09:22:11.917Z,45.18
2018-05-19T09:23:11.727Z,46.06
2018-05-19T09:24:11.953Z,46.06
2018-05-19T09:25:11.995Z,45.11
2018-05-19T09:26:11.754Z,44.15
2018-05-19T09:27:12.035Z,43.57
2018-05-19T09:28:12.059Z,40.88
2018-05-19T09:29:12.087Z,40.57
2018-05-19T09:30:12.114Z,42.41
2018-05-19T09:31:12.146Z,42.7
2018-05-19T09:32:12.220Z,42.21
2018-05-19T09:33:12.206Z,41.85
2018-05-19T09:34:12.233Z,40.88
2018-05-19T09:35:12.255Z,41.85
2018-05-19T09:36:12.277Z,42.24
2018-05-19T09:37:12.360Z,42.62
2018-05-19T09:38:12.332Z,42.24
2018-05-19T09:39:12.368Z,41.09
2018-05-19T09:40:12.391Z,40.81
2018-05-19T09:41:12.165Z,41.21
2018-05-19T09:42:12.506Z,40.53
2018-05-19T09:43:12.468Z,40.56
2018-05-19T09:44:12.501Z,40.56
2018-05-19T09:45:12.524Z,39.97
2018-05-19T09:46:12.558Z,39.32
2018-05-19T09:47:12.587Z,38.83
2018-05-19T09:48:12.604Z,38.46
2018-05-19T09:49:12.631Z,37.88
2018-05-19T09:50:12.661Z,37.01
2018-05-19T09:51:12.693Z,35.86
2018-05-19T09:52:12.719Z,35.86
2018-05-19T09:53:12.893Z,35.19
2018-05-19T09:54:12.781Z,35.11
2018-05-19T09:55:12.552Z,34.91
2018-05-19T09:56:12.580Z,34.44
2018-05-19T09:57:12.915Z,34.44
2018-05-19T09:58:12.897Z,34.54
2018-05-19T09:59:12.932Z,34.66
2018-05-19T10:00:12.954Z,33.9
2018-05-19T10:01:12.982Z,33.23
2018-05-19T10:02:13.012Z,32.65
2018-05-19T10:03:13.056Z,32.18
2018-05-19T10:04:13.074Z,30.83
2018-05-19T10:05:13.251Z,30.44
2018-05-19T10:06:13.130Z,30.07
2018-05-19T10:07:13.161Z,29.88
2018-05-19T10:08:13.193Z,30.18
2018-05-19T10:09:12.965Z,30.07
2018-05-19T10:10:12.998Z,29.79
2018-05-19T10:11:13.283Z,29.02
2018-05-19T10:12:13.360Z,28.14
2018-05-19T10:13:13.346Z,28.22
2018-05-19T10:14:13.378Z,28.23
2018-05-19T10:15:13.407Z,27.94
2018-05-19T10:16:13.437Z,27.94
2018-05-19T10:17:13.662Z,27.95
2018-05-19T10:18:13.245Z,27.97
2018-05-19T10:19:13.279Z,27.68
2018-05-19T10:20:13.564Z,27.48
2018-05-19T10:21:13.594Z,28.14
2018-05-19T10:22:13.625Z,28.51
2018-05-19T10:23:13.509Z,29.49
2018-05-19T10:24:13.688Z,29.39
2018-05-19T10:25:13.463Z,30.07
2018-05-19T10:26:13.759Z,29.78
2018-05-19T10:27:13.832Z,29.19
2018-05-19T10:28:13.620Z,28.63
2018-05-19T10:29:13.845Z,29.11
2018-05-19T10:30:13.618Z,27.56
2018-05-19T10:31:13.907Z,27.75
2018-05-19T10:32:13.922Z,27.84
2018-05-19T10:33:13.968Z,27.28
2018-05-19T10:34:14.008Z,26.31
2018-05-19T10:35:14.031Z,25.53
2018-05-19T10:36:14.059Z,25.84
2018-05-19T10:37:14.095Z,26.12
2018-05-19T10:38:14.124Z,25.93
2018-05-19T10:39:14.159Z,25.45
2018-05-19T10:40:14.192Z,26.34
2018-05-19T10:41:13.970Z,26.14
2018-05-19T10:42:14.111Z,26.24
2018-05-19T10:43:14.029Z,26.35
2018-05-19T10:44:14.064Z,24.9
2018-05-19T10:45:14.350Z,25.01
2018-05-19T10:46:14.385Z,24.52
2018-05-19T10:47:14.163Z,25.11
2018-05-19T10:48:14.445Z,23.54
2018-05-19T10:49:14.490Z,23.65
2018-05-19T10:50:14.511Z,24.22
2018-05-19T10:51:14.539Z,23.26
2018-05-19T10:52:14.369Z,23.36
2018-05-19T10:53:14.608Z,24.14
2018-05-19T10:54:14.642Z,23.36
2018-05-19T10:55:14.676Z,23.27
2018-05-19T10:56:14.707Z,22.69
2018-05-19T10:57:14.784Z,22.8
2018-05-19T10:58:14.513Z,23.09
2018-05-19T10:59:14.801Z,22.71
2018-05-19T11:00:14.580Z,22.42
2018-05-19T11:01:14.870Z,21.55
2018-05-19T11:02:14.948Z,22.91
2018-05-19T11:03:14.935Z,22.81
2018-05-19T11:04:14.959Z,22.61
2018-05-19T11:05:14.989Z,23.48
2018-05-19T11:06:15.023Z,23.18
2018-05-19T11:07:15.057Z,23.47
2018-05-19T11:08:14.839Z,23.68
2018-05-19T11:09:15.121Z,23.68
2018-05-19T11:10:15.155Z,23.68
2018-05-19T11:11:15.195Z,24.14
2018-05-19T11:12:15.281Z,24.64
2018-05-19T11:13:15.260Z,24.33
2018-05-19T11:14:15.291Z,23.38
2018-05-19T11:15:15.072Z,23.38
2018-05-19T11:16:15.102Z,23.11
2018-05-19T11:17:15.404Z,22.72
2018-05-19T11:18:15.423Z,22.71
2018-05-19T11:19:15.454Z,21.94
2018-05-19T11:20:15.488Z,22.51
2018-05-19T11:21:15.523Z,22.5
2018-05-19T11:22:15.555Z,23.19
2018-05-19T11:23:15.587Z,22.71
2018-05-19T11:24:15.365Z,22.52
2018-05-19T11:25:15.653Z,22.62
2018-05-19T11:26:15.433Z,22.8
2018-05-19T11:27:15.581Z,22.41
2018-05-19T11:28:15.751Z,23
2018-05-19T11:29:15.795Z,22.81
2018-05-19T11:30:15.818Z,22.61
2018-05-19T11:31:15.861Z,22.41
2018-05-19T11:32:15.937Z,23.1
2018-05-19T11:33:15.917Z,22.99
2018-05-19T11:34:15.951Z,22.72
2018-05-19T11:35:15.985Z,22.14
2018-05-19T11:36:16.018Z,22.16
2018-05-19T11:37:15.794Z,22.83
2018-05-19T11:38:16.084Z,22.73
2018-05-19T11:39:16.120Z,21.86
2018-05-19T11:40:16.150Z,21.66
2018-05-19T11:41:16.188Z,21.64
2018-05-19T11:42:16.269Z,21.64
2018-05-19T11:43:15.993Z,20.56
2018-05-19T11:44:16.028Z,20.74
2018-05-19T11:45:16.315Z,20.75
2018-05-19T11:46:16.340Z,21.14
2018-05-19T11:47:16.375Z,21.04
2018-05-19T11:48:16.407Z,20.46
2018-05-19T11:49:16.440Z,21.23
2018-05-19T11:50:16.475Z,20.64
2018-05-19T11:51:16.509Z,20.54
2018-05-19T11:52:16.538Z,20.84
2018-05-19T11:53:16.319Z,21.33
2018-05-19T11:54:16.350Z,20.04
2018-05-19T11:55:16.645Z,20.83
2018-05-19T11:56:16.672Z,20.61
2018-05-19T11:57:16.750Z,20.14
2018-05-19T11:58:16.735Z,20.23
2018-05-19T11:59:16.769Z,19.94
2018-05-19T12:00:16.801Z,19.36
2018-05-19T12:01:16.832Z,19.65
2018-05-19T12:02:16.612Z,19.65
2018-05-19T12:03:16.901Z,18.77
2018-05-19T12:04:16.930Z,19.74
2018-05-19T12:05:16.709Z,19.37
2018-05-19T12:06:16.740Z,20.25
2018-05-19T12:07:17.038Z,19.57
2018-05-19T12:08:17.059Z,19.27
2018-05-19T12:09:17.093Z,19.57
2018-05-19T12:10:16.873Z,18.7
2018-05-19T12:11:16.906Z,18.6
2018-05-19T12:12:17.599Z,18.68
2018-05-19T12:13:16.973Z,19.65
2018-05-19T12:14:17.267Z,19.84
2018-05-19T12:15:17.037Z,19.74
2018-05-19T12:16:17.323Z,19.85
2018-05-19T12:17:17.100Z,20.82
2018-05-19T12:18:17.388Z,20.53
2018-05-19T12:19:17.424Z,20.24
2018-05-19T12:20:17.456Z,20.06
2018-05-19T12:21:17.484Z,19.27
2018-05-19T12:22:17.527Z,20.06
2018-05-19T12:23:17.552Z,19.48
2018-05-19T12:24:17.584Z,19.77
2018-05-19T12:25:17.360Z,20.25
2018-05-19T12:26:17.648Z,20.54
2018-05-19T12:27:17.729Z,20.53
2018-05-19T12:28:17.711Z,21.01
2018-05-19T12:29:17.745Z,21.21
2018-05-19T12:30:17.771Z,21.6
2018-05-19T12:31:17.806Z,21.89
2018-05-19T12:32:17.833Z,22.37
2018-05-19T12:33:17.867Z,22.85
2018-05-19T12:34:17.646Z,22.94
2018-05-19T12:35:17.930Z,22.94
2018-05-19T12:36:17.710Z,23.43
2018-05-19T12:37:17.994Z,23.83
2018-05-19T12:38:18.027Z,23.82
2018-05-19T12:39:18.055Z,23.69
2018-05-19T12:40:17.829Z,23.8
2018-05-19T12:41:18.115Z,23.52
2018-05-19T12:42:18.195Z,23.91
2018-05-19T12:43:17.925Z,23.82
2018-05-19T12:44:18.209Z,24.68
2018-05-19T12:45:18.243Z,24.88
2018-05-19T12:46:18.022Z,25.53
2018-05-19T12:47:18.308Z,26.12
2018-05-19T12:48:18.336Z,26.31
2018-05-19T12:49:18.368Z,27.37
2018-05-19T12:50:18.387Z,27.75
2018-05-19T12:51:18.416Z,27.73
2018-05-19T12:52:18.451Z,27.44
2018-05-19T12:53:18.479Z,27.34
2018-05-19T12:54:18.260Z,27.36
2018-05-19T12:55:18.583Z,27.16